sensor_id;sensor_type;location;lat;lon;timestamp;P1;durP1;ratioP1;P2;durP2;ratioP2
4434;SDS011;46552;52.150;8.428;2022-08-05T00:00:26;22.23;;;5.27;;
4434;SDS011;46552;52.150;8.428;2022-08-05T00:02:53;16.57;;;5.93;;
4434;SDS011;46552;52.150;8.428;2022-08-05T00:05:21;12.97;;;4.67;;
4434;SDS011;46552;52.150;8.428;2022-08-05T00:07:49;10.67;;;4.10;;
4434;SDS011;46552;52.150;8.428;2022-08-05T00:10:16;14.83;;;5.70;;
4434;SDS011;46552;52.150;8.428;2022-08-05T00:12:45;14.50;;;3.70;;
4434;SDS011;46552;52.150;8.428;2022-08-05T00:15:12;11.83;;;4.10;;
4434;SDS011;46552;52.150;8.428;2022-08-05T00:17:39;7.80;;;3.23;;
4434;SDS011;46552;52.150;8.428;2022-08-05T00:20:06;15.90;;;3.93;;
4434;SDS011;46552;52.150;8.428;2022-08-05T00:22:34;8.80;;;3.50;;
4434;SDS011;46552;52.150;8.428;2022-08-05T00:25:02;11.60;;;3.13;;
4434;SDS011;46552;52.150;8.428;2022-08-05T00:27:29;13.40;;;3.43;;
4434;SDS011;46552;52.150;8.428;2022-08-05T00:29:58;8.87;;;3.23;;
4434;SDS011;46552;52.150;8.428;2022-08-05T00:32:25;13.47;;;3.50;;
4434;SDS011;46552;52.150;8.428;2022-08-05T00:34:52;8.23;;;3.20;;
4434;SDS011;46552;52.150;8.428;2022-08-05T00:37:20;9.10;;;3.70;;
4434;SDS011;46552;52.150;8.428;2022-08-05T00:39:47;8.57;;;2.80;;
4434;SDS011;46552;52.150;8.428;2022-08-05T00:42:14;9.33;;;3.23;;
4434;SDS011;46552;52.150;8.428;2022-08-05T00:44:41;9.63;;;3.00;;
4434;SDS011;46552;52.150;8.428;2022-08-05T00:47:11;7.77;;;3.00;;
4434;SDS011;46552;52.150;8.428;2022-08-05T00:49:39;12.43;;;3.50;;
4434;SDS011;46552;52.150;8.428;2022-08-05T00:52:06;7.83;;;3.20;;
4434;SDS011;46552;52.150;8.428;2022-08-05T00:54:33;10.17;;;3.70;;
4434;SDS011;46552;52.150;8.428;2022-08-05T00:57:00;15.13;;;4.53;;
4434;SDS011;46552;52.150;8.428;2022-08-05T00:59:27;14.83;;;5.20;;
4434;SDS011;46552;52.150;8.428;2022-08-05T01:01:55;16.00;;;5.70;;
4434;SDS011;46552;52.150;8.428;2022-08-05T01:04:23;9.53;;;4.40;;
4434;SDS011;46552;52.150;8.428;2022-08-05T01:06:51;22.67;;;7.13;;
4434;SDS011;46552;52.150;8.428;2022-08-05T01:09:18;21.50;;;6.20;;
4434;SDS011;46552;52.150;8.428;2022-08-05T01:11:45;17.70;;;6.83;;
4434;SDS011;46552;52.150;8.428;2022-08-05T01:14:16;22.77;;;7.80;;
4434;SDS011;46552;52.150;8.428;2022-08-05T01:17:02;14.80;;;7.27;;
4434;SDS011;46552;52.150;8.428;2022-08-05T01:19:34;16.80;;;7.57;;
4434;SDS011;46552;52.150;8.428;2022-08-05T01:22:09;15.90;;;7.13;;
4434;SDS011;46552;52.150;8.428;2022-08-05T01:24:58;16.57;;;7.37;;
4434;SDS011;46552;52.150;8.428;2022-08-05T01:27:47;11.57;;;6.83;;
4434;SDS011;46552;52.150;8.428;2022-08-05T01:30:25;14.93;;;6.90;;
4434;SDS011;46552;52.150;8.428;2022-08-05T01:32:54;17.13;;;7.07;;
4434;SDS011;46552;52.150;8.428;2022-08-05T01:35:25;18.37;;;7.10;;
4434;SDS011;46552;52.150;8.428;2022-08-05T01:37:56;15.97;;;7.33;;
4434;SDS011;46552;52.150;8.428;2022-08-05T01:40:26;15.70;;;7.17;;
4434;SDS011;46552;52.150;8.428;2022-08-05T01:42:58;12.70;;;7.30;;
4434;SDS011;46552;52.150;8.428;2022-08-05T01:45:28;20.20;;;8.83;;
4434;SDS011;46552;52.150;8.428;2022-08-05T01:47:57;17.77;;;7.57;;
4434;SDS011;46552;52.150;8.428;2022-08-05T01:50:28;19.83;;;8.17;;
4434;SDS011;46552;52.150;8.428;2022-08-05T01:52:58;15.40;;;8.33;;
4434;SDS011;46552;52.150;8.428;2022-08-05T01:55:27;20.20;;;9.13;;
4434;SDS011;46552;52.150;8.428;2022-08-05T01:57:59;18.23;;;9.50;;
4434;SDS011;46552;52.150;8.428;2022-08-05T02:00:29;24.53;;;8.93;;
4434;SDS011;46552;52.150;8.428;2022-08-05T02:03:00;18.73;;;9.43;;
4434;SDS011;46552;52.150;8.428;2022-08-05T02:05:32;16.60;;;9.07;;
4434;SDS011;46552;52.150;8.428;2022-08-05T02:08:02;19.83;;;9.10;;
4434;SDS011;46552;52.150;8.428;2022-08-05T02:10:31;15.73;;;9.50;;
4434;SDS011;46552;52.150;8.428;2022-08-05T02:13:08;23.07;;;10.60;;
4434;SDS011;46552;52.150;8.428;2022-08-05T02:15:40;19.50;;;10.17;;
4434;SDS011;46552;52.150;8.428;2022-08-05T02:18:13;18.53;;;10.03;;
4434;SDS011;46552;52.150;8.428;2022-08-05T02:20:46;18.47;;;9.40;;
4434;SDS011;46552;52.150;8.428;2022-08-05T02:23:21;18.03;;;9.47;;
4434;SDS011;46552;52.150;8.428;2022-08-05T02:25:52;20.93;;;9.67;;
4434;SDS011;46552;52.150;8.428;2022-08-05T02:28:23;23.77;;;9.00;;
4434;SDS011;46552;52.150;8.428;2022-08-05T02:30:54;15.03;;;8.73;;
4434;SDS011;46552;52.150;8.428;2022-08-05T02:33:24;20.97;;;10.07;;
4434;SDS011;46552;52.150;8.428;2022-08-05T02:35:52;18.53;;;9.93;;
4434;SDS011;46552;52.150;8.428;2022-08-05T02:38:23;26.57;;;10.00;;
4434;SDS011;46552;52.150;8.428;2022-08-05T02:40:54;23.27;;;10.63;;
4434;SDS011;46552;52.150;8.428;2022-08-05T02:43:26;18.47;;;11.40;;
4434;SDS011;46552;52.150;8.428;2022-08-05T02:45:55;21.93;;;11.33;;
4434;SDS011;46552;52.150;8.428;2022-08-05T02:48:23;22.43;;;11.27;;
4434;SDS011;46552;52.150;8.428;2022-08-05T02:50:51;19.50;;;10.13;;
4434;SDS011;46552;52.150;8.428;2022-08-05T02:53:19;21.03;;;10.50;;
4434;SDS011;46552;52.150;8.428;2022-08-05T02:55:47;26.17;;;10.97;;
4434;SDS011;46552;52.150;8.428;2022-08-05T02:58:17;23.63;;;10.77;;
4434;SDS011;46552;52.150;8.428;2022-08-05T03:00:48;26.47;;;12.53;;
4434;SDS011;46552;52.150;8.428;2022-08-05T03:03:17;25.20;;;12.10;;
4434;SDS011;46552;52.150;8.428;2022-08-05T03:05:45;24.53;;;12.93;;
4434;SDS011;46552;52.150;8.428;2022-08-05T03:08:14;26.20;;;12.53;;
4434;SDS011;46552;52.150;8.428;2022-08-05T03:10:42;32.67;;;11.73;;
4434;SDS011;46552;52.150;8.428;2022-08-05T03:13:10;19.77;;;10.90;;
4434;SDS011;46552;52.150;8.428;2022-08-05T03:15:40;22.20;;;12.70;;
4434;SDS011;46552;52.150;8.428;2022-08-05T03:18:09;34.77;;;13.43;;
4434;SDS011;46552;52.150;8.428;2022-08-05T03:20:36;24.87;;;12.87;;
4434;SDS011;46552;52.150;8.428;2022-08-05T03:23:03;23.70;;;12.80;;
4434;SDS011;46552;52.150;8.428;2022-08-05T03:25:32;30.23;;;14.00;;
4434;SDS011;46552;52.150;8.428;2022-08-05T03:28:00;25.50;;;14.20;;
4434;SDS011;46552;52.150;8.428;2022-08-05T03:30:29;27.60;;;12.33;;
4434;SDS011;46552;52.150;8.428;2022-08-05T03:32:58;28.17;;;13.20;;
4434;SDS011;46552;52.150;8.428;2022-08-05T03:35:27;25.83;;;13.57;;
4434;SDS011;46552;52.150;8.428;2022-08-05T03:37:57;31.80;;;13.40;;
4434;SDS011;46552;52.150;8.428;2022-08-05T03:40:24;26.30;;;13.57;;
4434;SDS011;46552;52.150;8.428;2022-08-05T03:42:52;36.60;;;14.77;;
4434;SDS011;46552;52.150;8.428;2022-08-05T03:45:20;28.83;;;13.50;;
4434;SDS011;46552;52.150;8.428;2022-08-05T03:47:47;24.40;;;13.27;;
4434;SDS011;46552;52.150;8.428;2022-08-05T03:50:15;25.67;;;14.60;;
4434;SDS011;46552;52.150;8.428;2022-08-05T03:52:47;33.53;;;15.20;;
4434;SDS011;46552;52.150;8.428;2022-08-05T03:55:21;28.97;;;15.50;;
4434;SDS011;46552;52.150;8.428;2022-08-05T03:57:53;33.20;;;15.13;;
4434;SDS011;46552;52.150;8.428;2022-08-05T04:00:21;24.47;;;14.53;;
4434;SDS011;46552;52.150;8.428;2022-08-05T04:02:55;26.90;;;13.17;;
4434;SDS011;46552;52.150;8.428;2022-08-05T04:05:26;31.53;;;13.73;;
4434;SDS011;46552;52.150;8.428;2022-08-05T04:07:57;23.23;;;12.37;;
4434;SDS011;46552;52.150;8.428;2022-08-05T04:10:26;33.90;;;13.53;;
4434;SDS011;46552;52.150;8.428;2022-08-05T04:12:53;29.87;;;12.10;;
4434;SDS011;46552;52.150;8.428;2022-08-05T04:15:21;23.37;;;11.87;;
4434;SDS011;46552;52.150;8.428;2022-08-05T04:17:49;30.03;;;11.67;;
4434;SDS011;46552;52.150;8.428;2022-08-05T04:20:17;17.60;;;10.87;;
4434;SDS011;46552;52.150;8.428;2022-08-05T04:22:45;24.00;;;11.60;;
4434;SDS011;46552;52.150;8.428;2022-08-05T04:25:16;25.63;;;11.00;;
4434;SDS011;46552;52.150;8.428;2022-08-05T04:27:43;20.00;;;10.40;;
4434;SDS011;46552;52.150;8.428;2022-08-05T04:30:11;16.30;;;8.93;;
4434;SDS011;46552;52.150;8.428;2022-08-05T04:32:39;28.77;;;9.67;;
4434;SDS011;46552;52.150;8.428;2022-08-05T04:35:06;26.23;;;9.07;;
4434;SDS011;46552;52.150;8.428;2022-08-05T04:37:34;24.47;;;10.50;;
4434;SDS011;46552;52.150;8.428;2022-08-05T04:40:01;28.80;;;10.07;;
4434;SDS011;46552;52.150;8.428;2022-08-05T04:42:30;17.87;;;9.80;;
4434;SDS011;46552;52.150;8.428;2022-08-05T04:44:56;21.20;;;8.60;;
4434;SDS011;46552;52.150;8.428;2022-08-05T04:47:24;24.30;;;10.27;;
4434;SDS011;46552;52.150;8.428;2022-08-05T04:49:51;16.40;;;10.07;;
4434;SDS011;46552;52.150;8.428;2022-08-05T04:52:18;27.20;;;9.60;;
4434;SDS011;46552;52.150;8.428;2022-08-05T04:54:45;17.80;;;8.83;;
4434;SDS011;46552;52.150;8.428;2022-08-05T04:57:13;18.10;;;9.60;;
4434;SDS011;46552;52.150;8.428;2022-08-05T04:59:42;17.50;;;10.47;;
4434;SDS011;46552;52.150;8.428;2022-08-05T05:02:09;18.57;;;8.77;;
4434;SDS011;46552;52.150;8.428;2022-08-05T05:04:36;17.43;;;9.17;;
4434;SDS011;46552;52.150;8.428;2022-08-05T05:07:03;14.07;;;8.57;;
4434;SDS011;46552;52.150;8.428;2022-08-05T05:09:30;15.93;;;9.03;;
4434;SDS011;46552;52.150;8.428;2022-08-05T05:11:57;16.10;;;7.40;;
4434;SDS011;46552;52.150;8.428;2022-08-05T05:14:25;13.30;;;8.00;;
4434;SDS011;46552;52.150;8.428;2022-08-05T05:16:54;16.00;;;8.30;;
4434;SDS011;46552;52.150;8.428;2022-08-05T05:19:22;18.33;;;9.20;;
4434;SDS011;46552;52.150;8.428;2022-08-05T05:21:50;24.97;;;9.67;;
4434;SDS011;46552;52.150;8.428;2022-08-05T05:24:17;19.70;;;8.37;;
4434;SDS011;46552;52.150;8.428;2022-08-05T05:26:45;17.90;;;9.23;;
4434;SDS011;46552;52.150;8.428;2022-08-05T05:29:13;16.03;;;8.73;;
4434;SDS011;46552;52.150;8.428;2022-08-05T05:31:41;18.83;;;7.83;;
4434;SDS011;46552;52.150;8.428;2022-08-05T05:34:11;15.47;;;8.13;;
4434;SDS011;46552;52.150;8.428;2022-08-05T05:36:39;11.20;;;5.87;;
4434;SDS011;46552;52.150;8.428;2022-08-05T05:39:06;22.87;;;7.80;;
4434;SDS011;46552;52.150;8.428;2022-08-05T05:41:34;18.60;;;8.77;;
4434;SDS011;46552;52.150;8.428;2022-08-05T05:44:02;22.57;;;9.50;;
4434;SDS011;46552;52.150;8.428;2022-08-05T05:46:30;14.20;;;8.63;;
4434;SDS011;46552;52.150;8.428;2022-08-05T05:48:57;17.50;;;7.37;;
4434;SDS011;46552;52.150;8.428;2022-08-05T05:51:26;16.93;;;7.63;;
4434;SDS011;46552;52.150;8.428;2022-08-05T05:53:54;16.70;;;8.57;;
4434;SDS011;46552;52.150;8.428;2022-08-05T05:56:23;18.33;;;9.23;;
4434;SDS011;46552;52.150;8.428;2022-08-05T05:58:50;21.73;;;9.17;;
4434;SDS011;46552;52.150;8.428;2022-08-05T06:01:17;18.17;;;9.70;;
4434;SDS011;46552;52.150;8.428;2022-08-05T06:03:45;23.73;;;10.07;;
4434;SDS011;46552;52.150;8.428;2022-08-05T06:06:13;20.50;;;9.70;;
4434;SDS011;46552;52.150;8.428;2022-08-05T06:08:41;22.90;;;9.60;;
4434;SDS011;46552;52.150;8.428;2022-08-05T06:11:08;20.83;;;11.27;;
4434;SDS011;46552;52.150;8.428;2022-08-05T06:13:36;15.93;;;9.93;;
4434;SDS011;46552;52.150;8.428;2022-08-05T06:16:03;16.13;;;8.93;;
4434;SDS011;46552;52.150;8.428;2022-08-05T06:18:30;24.97;;;9.37;;
4434;SDS011;46552;52.150;8.428;2022-08-05T06:20:58;13.50;;;9.23;;
4434;SDS011;46552;52.150;8.428;2022-08-05T06:23:25;16.47;;;10.13;;
4434;SDS011;46552;52.150;8.428;2022-08-05T06:25:55;12.73;;;9.47;;
4434;SDS011;46552;52.150;8.428;2022-08-05T06:28:22;18.20;;;11.13;;
4434;SDS011;46552;52.150;8.428;2022-08-05T06:30:51;19.90;;;10.70;;
4434;SDS011;46552;52.150;8.428;2022-08-05T06:33:18;16.57;;;11.30;;
4434;SDS011;46552;52.150;8.428;2022-08-05T06:35:45;24.73;;;10.70;;
4434;SDS011;46552;52.150;8.428;2022-08-05T06:38:12;17.70;;;11.77;;
4434;SDS011;46552;52.150;8.428;2022-08-05T06:40:41;22.30;;;12.57;;
4434;SDS011;46552;52.150;8.428;2022-08-05T06:43:10;21.33;;;12.60;;
4434;SDS011;46552;52.150;8.428;2022-08-05T06:45:38;20.20;;;13.00;;
4434;SDS011;46552;52.150;8.428;2022-08-05T06:48:05;20.97;;;12.67;;
4434;SDS011;46552;52.150;8.428;2022-08-05T06:50:33;19.00;;;11.23;;
4434;SDS011;46552;52.150;8.428;2022-08-05T06:52:59;20.67;;;13.00;;
4434;SDS011;46552;52.150;8.428;2022-08-05T06:55:27;21.53;;;13.73;;
4434;SDS011;46552;52.150;8.428;2022-08-05T06:57:54;26.67;;;13.47;;
4434;SDS011;46552;52.150;8.428;2022-08-05T07:00:23;29.07;;;13.80;;
4434;SDS011;46552;52.150;8.428;2022-08-05T07:02:50;25.03;;;13.30;;
4434;SDS011;46552;52.150;8.428;2022-08-05T07:05:17;24.73;;;13.93;;
4434;SDS011;46552;52.150;8.428;2022-08-05T07:07:45;16.73;;;12.20;;
4434;SDS011;46552;52.150;8.428;2022-08-05T07:10:13;19.40;;;12.07;;
4434;SDS011;46552;52.150;8.428;2022-08-05T07:12:40;29.90;;;12.10;;
4434;SDS011;46552;52.150;8.428;2022-08-05T07:15:26;19.13;;;11.90;;
4434;SDS011;46552;52.150;8.428;2022-08-05T07:18:10;23.33;;;12.07;;
4434;SDS011;46552;52.150;8.428;2022-08-05T07:20:38;20.23;;;10.47;;
4434;SDS011;46552;52.150;8.428;2022-08-05T07:23:06;20.03;;;11.47;;
4434;SDS011;46552;52.150;8.428;2022-08-05T07:25:33;19.03;;;11.60;;
4434;SDS011;46552;52.150;8.428;2022-08-05T07:28:00;17.40;;;9.60;;
4434;SDS011;46552;52.150;8.428;2022-08-05T07:30:28;17.50;;;9.07;;
4434;SDS011;46552;52.150;8.428;2022-08-05T07:32:56;18.37;;;9.10;;
4434;SDS011;46552;52.150;8.428;2022-08-05T07:35:23;12.03;;;8.60;;
4434;SDS011;46552;52.150;8.428;2022-08-05T07:37:52;14.53;;;9.03;;
4434;SDS011;46552;52.150;8.428;2022-08-05T07:40:21;16.43;;;9.83;;
4434;SDS011;46552;52.150;8.428;2022-08-05T07:42:49;25.70;;;10.10;;
4434;SDS011;46552;52.150;8.428;2022-08-05T07:45:16;14.70;;;8.90;;
4434;SDS011;46552;52.150;8.428;2022-08-05T07:47:45;16.03;;;10.03;;
4434;SDS011;46552;52.150;8.428;2022-08-05T07:50:12;16.53;;;10.17;;
4434;SDS011;46552;52.150;8.428;2022-08-05T07:52:39;17.33;;;9.63;;
4434;SDS011;46552;52.150;8.428;2022-08-05T07:55:07;19.50;;;10.17;;
4434;SDS011;46552;52.150;8.428;2022-08-05T07:57:35;12.93;;;8.90;;
4434;SDS011;46552;52.150;8.428;2022-08-05T08:00:03;14.30;;;9.93;;
4434;SDS011;46552;52.150;8.428;2022-08-05T08:02:31;16.90;;;10.87;;
4434;SDS011;46552;52.150;8.428;2022-08-05T08:05:01;12.30;;;9.30;;
4434;SDS011;46552;52.150;8.428;2022-08-05T08:07:28;15.43;;;9.53;;
4434;SDS011;46552;52.150;8.428;2022-08-05T08:09:55;13.40;;;8.10;;
4434;SDS011;46552;52.150;8.428;2022-08-05T08:12:23;15.80;;;8.40;;
4434;SDS011;46552;52.150;8.428;2022-08-05T08:14:50;19.33;;;10.23;;
4434;SDS011;46552;52.150;8.428;2022-08-05T08:17:18;18.27;;;9.20;;
4434;SDS011;46552;52.150;8.428;2022-08-05T08:19:45;23.37;;;8.30;;
4434;SDS011;46552;52.150;8.428;2022-08-05T08:22:14;19.57;;;9.20;;
4434;SDS011;46552;52.150;8.428;2022-08-05T08:24:41;20.40;;;10.10;;
4434;SDS011;46552;52.150;8.428;2022-08-05T08:27:08;18.13;;;9.60;;
4434;SDS011;46552;52.150;8.428;2022-08-05T08:29:35;17.47;;;9.63;;
4434;SDS011;46552;52.150;8.428;2022-08-05T08:32:04;16.60;;;10.73;;
4434;SDS011;46552;52.150;8.428;2022-08-05T08:34:31;17.17;;;10.73;;
4434;SDS011;46552;52.150;8.428;2022-08-05T08:36:58;18.47;;;11.10;;
4434;SDS011;46552;52.150;8.428;2022-08-05T08:39:28;20.97;;;10.90;;
4434;SDS011;46552;52.150;8.428;2022-08-05T08:41:55;24.17;;;11.93;;
4434;SDS011;46552;52.150;8.428;2022-08-05T08:44:25;23.40;;;11.60;;
4434;SDS011;46552;52.150;8.428;2022-08-05T08:46:54;24.97;;;13.80;;
4434;SDS011;46552;52.150;8.428;2022-08-05T08:49:23;14.80;;;10.30;;
4434;SDS011;46552;52.150;8.428;2022-08-05T08:51:53;21.90;;;13.57;;
4434;SDS011;46552;52.150;8.428;2022-08-05T08:54:24;23.77;;;13.20;;
4434;SDS011;46552;52.150;8.428;2022-08-05T08:56:54;22.43;;;13.10;;
4434;SDS011;46552;52.150;8.428;2022-08-05T08:59:22;22.37;;;12.93;;
4434;SDS011;46552;52.150;8.428;2022-08-05T09:01:50;23.67;;;14.00;;
4434;SDS011;46552;52.150;8.428;2022-08-05T09:04:18;21.70;;;13.17;;
4434;SDS011;46552;52.150;8.428;2022-08-05T09:06:45;17.67;;;11.70;;
4434;SDS011;46552;52.150;8.428;2022-08-05T09:09:13;21.47;;;12.80;;
4434;SDS011;46552;52.150;8.428;2022-08-05T09:11:41;17.33;;;11.90;;
4434;SDS011;46552;52.150;8.428;2022-08-05T09:14:10;19.20;;;13.67;;
4434;SDS011;46552;52.150;8.428;2022-08-05T09:16:37;22.47;;;14.27;;
4434;SDS011;46552;52.150;8.428;2022-08-05T09:19:05;24.33;;;14.73;;
4434;SDS011;46552;52.150;8.428;2022-08-05T09:21:34;25.73;;;14.17;;
4434;SDS011;46552;52.150;8.428;2022-08-05T09:24:04;20.30;;;13.63;;
4434;SDS011;46552;52.150;8.428;2022-08-05T09:26:32;27.40;;;14.63;;
4434;SDS011;46552;52.150;8.428;2022-08-05T09:29:01;20.60;;;14.33;;
4434;SDS011;46552;52.150;8.428;2022-08-05T09:31:33;25.80;;;14.30;;
4434;SDS011;46552;52.150;8.428;2022-08-05T09:34:01;20.20;;;14.20;;
4434;SDS011;46552;52.150;8.428;2022-08-05T09:36:40;20.13;;;12.17;;
4434;SDS011;46552;52.150;8.428;2022-08-05T09:39:10;11.70;;;8.87;;
4434;SDS011;46552;52.150;8.428;2022-08-05T09:41:53;9.53;;;7.47;;
4434;SDS011;46552;52.150;8.428;2022-08-05T09:44:35;14.07;;;7.83;;
4434;SDS011;46552;52.150;8.428;2022-08-05T09:47:10;10.23;;;6.37;;
4434;SDS011;46552;52.150;8.428;2022-08-05T09:49:39;16.20;;;7.03;;
4434;SDS011;46552;52.150;8.428;2022-08-05T09:52:17;9.20;;;5.83;;
4434;SDS011;46552;52.150;8.428;2022-08-05T09:54:58;15.27;;;6.13;;
4434;SDS011;46552;52.150;8.428;2022-08-05T09:57:34;11.10;;;6.10;;
4434;SDS011;46552;52.150;8.428;2022-08-05T10:00:05;9.53;;;5.03;;
4434;SDS011;46552;52.150;8.428;2022-08-05T10:02:37;10.43;;;4.67;;
4434;SDS011;46552;52.150;8.428;2022-08-05T10:05:09;7.63;;;4.40;;
4434;SDS011;46552;52.150;8.428;2022-08-05T10:07:49;13.77;;;5.30;;
4434;SDS011;46552;52.150;8.428;2022-08-05T10:10:18;9.20;;;4.47;;
4434;SDS011;46552;52.150;8.428;2022-08-05T10:12:48;7.00;;;3.90;;
4434;SDS011;46552;52.150;8.428;2022-08-05T10:15:18;8.23;;;3.67;;
4434;SDS011;46552;52.150;8.428;2022-08-05T10:18:11;5.73;;;2.47;;
4434;SDS011;46552;52.150;8.428;2022-08-05T10:20:40;11.50;;;3.27;;
4434;SDS011;46552;52.150;8.428;2022-08-05T10:23:11;10.70;;;4.20;;
4434;SDS011;46552;52.150;8.428;2022-08-05T10:25:39;8.37;;;3.20;;
4434;SDS011;46552;52.150;8.428;2022-08-05T10:28:06;13.03;;;3.40;;
4434;SDS011;46552;52.150;8.428;2022-08-05T10:30:35;11.90;;;3.90;;
4434;SDS011;46552;52.150;8.428;2022-08-05T10:33:03;10.83;;;4.20;;
4434;SDS011;46552;52.150;8.428;2022-08-05T10:35:34;10.27;;;4.93;;
4434;SDS011;46552;52.150;8.428;2022-08-05T10:38:02;16.07;;;5.20;;
4434;SDS011;46552;52.150;8.428;2022-08-05T10:40:31;12.97;;;5.40;;
4434;SDS011;46552;52.150;8.428;2022-08-05T10:43:02;13.30;;;5.07;;
4434;SDS011;46552;52.150;8.428;2022-08-05T10:45:34;11.37;;;5.83;;
4434;SDS011;46552;52.150;8.428;2022-08-05T10:50:57;10.60;;;6.20;;
4434;SDS011;46552;52.150;8.428;2022-08-05T10:53:33;14.63;;;6.43;;
4434;SDS011;46552;52.150;8.428;2022-08-05T10:56:06;16.37;;;6.27;;
4434;SDS011;46552;52.150;8.428;2022-08-05T10:58:34;8.80;;;5.00;;
4434;SDS011;46552;52.150;8.428;2022-08-05T11:01:12;12.20;;;6.40;;
4434;SDS011;46552;52.150;8.428;2022-08-05T11:06:27;9.47;;;6.00;;
4434;SDS011;46552;52.150;8.428;2022-08-05T11:09:10;9.10;;;6.37;;
4434;SDS011;46552;52.150;8.428;2022-08-05T11:11:40;10.47;;;6.90;;
4434;SDS011;46552;52.150;8.428;2022-08-05T11:14:08;13.17;;;6.20;;
4434;SDS011;46552;52.150;8.428;2022-08-05T11:16:37;9.80;;;6.07;;
4434;SDS011;46552;52.150;8.428;2022-08-05T11:19:23;9.90;;;5.40;;
4434;SDS011;46552;52.150;8.428;2022-08-05T11:21:54;12.77;;;5.90;;
4434;SDS011;46552;52.150;8.428;2022-08-05T11:24:22;14.43;;;6.03;;
4434;SDS011;46552;52.150;8.428;2022-08-05T11:26:50;12.53;;;5.70;;
4434;SDS011;46552;52.150;8.428;2022-08-05T11:29:57;13.37;;;5.50;;
4434;SDS011;46552;52.150;8.428;2022-08-05T11:32:26;12.97;;;6.30;;
4434;SDS011;46552;52.150;8.428;2022-08-05T11:34:55;13.30;;;6.00;;
4434;SDS011;46552;52.150;8.428;2022-08-05T11:37:43;17.30;;;6.57;;
4434;SDS011;46552;52.150;8.428;2022-08-05T11:43:25;9.33;;;6.33;;
4434;SDS011;46552;52.150;8.428;2022-08-05T11:45:54;10.43;;;6.40;;
4434;SDS011;46552;52.150;8.428;2022-08-05T11:48:22;8.20;;;5.57;;
4434;SDS011;46552;52.150;8.428;2022-08-05T11:50:50;8.77;;;4.83;;
4434;SDS011;46552;52.150;8.428;2022-08-05T11:53:19;6.87;;;4.63;;
4434;SDS011;46552;52.150;8.428;2022-08-05T11:55:54;7.07;;;5.20;;
4434;SDS011;46552;52.150;8.428;2022-08-05T11:58:28;12.03;;;5.30;;
4434;SDS011;46552;52.150;8.428;2022-08-05T12:01:03;8.30;;;5.20;;
4434;SDS011;46552;52.150;8.428;2022-08-05T12:03:39;8.00;;;5.37;;
4434;SDS011;46552;52.150;8.428;2022-08-05T12:06:08;9.20;;;5.83;;
4434;SDS011;46552;52.150;8.428;2022-08-05T12:08:43;13.03;;;5.10;;
4434;SDS011;46552;52.150;8.428;2022-08-05T12:11:17;7.20;;;4.17;;
4434;SDS011;46552;52.150;8.428;2022-08-05T12:13:53;5.87;;;3.20;;
4434;SDS011;46552;52.150;8.428;2022-08-05T12:16:21;10.67;;;3.77;;
4434;SDS011;46552;52.150;8.428;2022-08-05T12:18:50;6.30;;;2.80;;
4434;SDS011;46552;52.150;8.428;2022-08-05T12:21:18;4.87;;;3.03;;
4434;SDS011;46552;52.150;8.428;2022-08-05T12:23:52;6.03;;;2.87;;
4434;SDS011;46552;52.150;8.428;2022-08-05T12:26:20;7.40;;;2.73;;
4434;SDS011;46552;52.150;8.428;2022-08-05T12:28:47;4.83;;;2.50;;
4434;SDS011;46552;52.150;8.428;2022-08-05T12:31:15;5.47;;;2.57;;
4434;SDS011;46552;52.150;8.428;2022-08-05T12:33:43;6.60;;;2.43;;
4434;SDS011;46552;52.150;8.428;2022-08-05T12:36:10;5.17;;;2.67;;
4434;SDS011;46552;52.150;8.428;2022-08-05T12:38:39;5.40;;;2.93;;
4434;SDS011;46552;52.150;8.428;2022-08-05T12:41:10;6.07;;;3.33;;
4434;SDS011;46552;52.150;8.428;2022-08-05T12:43:49;4.63;;;2.73;;
4434;SDS011;46552;52.150;8.428;2022-08-05T12:46:20;6.83;;;2.93;;
4434;SDS011;46552;52.150;8.428;2022-08-05T12:48:55;4.80;;;2.50;;
4434;SDS011;46552;52.150;8.428;2022-08-05T12:51:24;5.20;;;2.57;;
4434;SDS011;46552;52.150;8.428;2022-08-05T12:53:57;6.63;;;3.00;;
4434;SDS011;46552;52.150;8.428;2022-08-05T12:56:28;6.90;;;2.97;;
4434;SDS011;46552;52.150;8.428;2022-08-05T12:59:12;6.43;;;3.53;;
4434;SDS011;46552;52.150;8.428;2022-08-05T13:01:41;5.80;;;3.40;;
4434;SDS011;46552;52.150;8.428;2022-08-05T13:04:10;10.10;;;3.80;;
4434;SDS011;46552;52.150;8.428;2022-08-05T13:06:39;10.50;;;4.27;;
4434;SDS011;46552;52.150;8.428;2022-08-05T13:09:07;7.40;;;2.83;;
4434;SDS011;46552;52.150;8.428;2022-08-05T13:11:38;6.03;;;2.30;;
4434;SDS011;46552;52.150;8.428;2022-08-05T13:14:10;4.57;;;2.20;;
4434;SDS011;46552;52.150;8.428;2022-08-05T13:16:46;6.37;;;2.33;;
4434;SDS011;46552;52.150;8.428;2022-08-05T13:19:15;6.77;;;2.50;;
4434;SDS011;46552;52.150;8.428;2022-08-05T13:21:44;5.23;;;2.37;;
4434;SDS011;46552;52.150;8.428;2022-08-05T13:24:14;4.40;;;2.30;;
4434;SDS011;46552;52.150;8.428;2022-08-05T13:26:44;8.87;;;2.37;;
4434;SDS011;46552;52.150;8.428;2022-08-05T13:29:11;4.03;;;2.20;;
4434;SDS011;46552;52.150;8.428;2022-08-05T13:31:39;5.60;;;3.50;;
4434;SDS011;46552;52.150;8.428;2022-08-05T13:34:06;6.40;;;3.50;;
4434;SDS011;46552;52.150;8.428;2022-08-05T13:36:34;8.13;;;3.20;;
4434;SDS011;46552;52.150;8.428;2022-08-05T13:39:03;6.30;;;2.93;;
4434;SDS011;46552;52.150;8.428;2022-08-05T13:41:31;6.90;;;3.57;;
4434;SDS011;46552;52.150;8.428;2022-08-05T13:44:00;6.67;;;3.03;;
4434;SDS011;46552;52.150;8.428;2022-08-05T13:46:27;8.30;;;3.00;;
4434;SDS011;46552;52.150;8.428;2022-08-05T13:48:55;7.23;;;3.63;;
4434;SDS011;46552;52.150;8.428;2022-08-05T13:51:26;7.20;;;3.60;;
4434;SDS011;46552;52.150;8.428;2022-08-05T13:53:56;9.87;;;4.60;;
4434;SDS011;46552;52.150;8.428;2022-08-05T13:56:24;7.63;;;4.27;;
4434;SDS011;46552;52.150;8.428;2022-08-05T13:58:51;8.00;;;4.30;;
4434;SDS011;46552;52.150;8.428;2022-08-05T14:01:20;7.67;;;3.50;;
4434;SDS011;46552;52.150;8.428;2022-08-05T14:03:47;5.93;;;3.40;;
4434;SDS011;46552;52.150;8.428;2022-08-05T14:06:28;6.60;;;4.00;;
4434;SDS011;46552;52.150;8.428;2022-08-05T14:08:56;13.97;;;3.60;;
4434;SDS011;46552;52.150;8.428;2022-08-05T14:11:25;4.63;;;2.70;;
4434;SDS011;46552;52.150;8.428;2022-08-05T14:13:53;12.53;;;4.03;;
4434;SDS011;46552;52.150;8.428;2022-08-05T14:16:22;6.53;;;3.20;;
4434;SDS011;46552;52.150;8.428;2022-08-05T14:18:49;4.87;;;3.33;;
4434;SDS011;46552;52.150;8.428;2022-08-05T14:21:16;5.30;;;3.10;;
4434;SDS011;46552;52.150;8.428;2022-08-05T14:23:44;7.53;;;3.10;;
4434;SDS011;46552;52.150;8.428;2022-08-05T14:26:11;8.27;;;2.93;;
4434;SDS011;46552;52.150;8.428;2022-08-05T14:28:38;8.23;;;3.20;;
4434;SDS011;46552;52.150;8.428;2022-08-05T14:31:06;13.63;;;3.03;;
4434;SDS011;46552;52.150;8.428;2022-08-05T14:33:35;5.80;;;2.70;;
4434;SDS011;46552;52.150;8.428;2022-08-05T14:36:03;6.33;;;3.33;;
4434;SDS011;46552;52.150;8.428;2022-08-05T14:38:30;4.13;;;3.23;;
4434;SDS011;46552;52.150;8.428;2022-08-05T14:40:57;7.00;;;3.50;;
4434;SDS011;46552;52.150;8.428;2022-08-05T14:43:25;5.00;;;3.57;;
4434;SDS011;46552;52.150;8.428;2022-08-05T14:45:53;5.20;;;4.00;;
4434;SDS011;46552;52.150;8.428;2022-08-05T14:48:20;17.23;;;3.77;;
4434;SDS011;46552;52.150;8.428;2022-08-05T14:50:49;5.23;;;3.00;;
4434;SDS011;46552;52.150;8.428;2022-08-05T14:53:17;8.40;;;3.50;;
4434;SDS011;46552;52.150;8.428;2022-08-05T14:55:44;9.40;;;3.70;;
4434;SDS011;46552;52.150;8.428;2022-08-05T14:58:11;6.60;;;3.60;;
4434;SDS011;46552;52.150;8.428;2022-08-05T15:00:39;4.40;;;2.10;;
4434;SDS011;46552;52.150;8.428;2022-08-05T15:03:07;3.33;;;2.20;;
4434;SDS011;46552;52.150;8.428;2022-08-05T15:05:34;5.60;;;2.30;;
4434;SDS011;46552;52.150;8.428;2022-08-05T15:08:03;3.60;;;2.17;;
4434;SDS011;46552;52.150;8.428;2022-08-05T15:10:30;3.63;;;2.30;;